sensor_id;sensor_type;location;lat;lon;timestamp;pressure;altitude;pressure_sealevel;temperature;humidity
52653;BME280;39353;42.864;12.014;2023-10-08T00:02:25;98271.89;;;26.28;45.02
52653;BME280;39353;42.864;12.014;2023-10-08T00:04:53;98274.98;;;26.28;45.03
52653;BME280;39353;42.864;12.014;2023-10-08T00:07:21;98271.49;;;26.27;45.16
52653;BME280;39353;42.864;12.014;2023-10-08T00:09:51;98273.10;;;26.27;45.02
52653;BME280;39353;42.864;12.014;2023-10-08T00:12:19;98274.46;;;26.26;45.11
52653;BME280;39353;42.864;12.014;2023-10-08T00:14:47;98271.71;;;26.26;45.06
52653;BME280;39353;42.864;12.014;2023-10-08T00:17:20;98266.23;;;26.24;45.16
52653;BME280;39353;42.864;12.014;2023-10-08T00:19:47;98265.74;;;26.25;45.03
52653;BME280;39353;42.864;12.014;2023-10-08T00:22:20;98262.75;;;26.24;45.00
52653;BME280;39353;42.864;12.014;2023-10-08T00:24:46;98262.23;;;26.22;45.22
52653;BME280;39353;42.864;12.014;2023-10-08T00:27:16;98262.98;;;26.22;45.13
52653;BME280;39353;42.864;12.014;2023-10-08T00:29:44;98259.14;;;26.22;45.22
52653;BME280;39353;42.864;12.014;2023-10-08T00:32:11;98261.27;;;26.22;45.04
52653;BME280;39353;42.864;12.014;2023-10-08T00:34:42;98263.60;;;26.22;45.24
52653;BME280;39353;42.864;12.014;2023-10-08T00:37:11;98262.98;;;26.21;45.28
52653;BME280;39353;42.864;12.014;2023-10-08T00:39:41;98262.94;;;26.22;45.23
52653;BME280;39353;42.864;12.014;2023-10-08T00:42:09;98261.80;;;26.20;45.37
52653;BME280;39353;42.864;12.014;2023-10-08T00:44:36;98259.11;;;26.20;45.35
52653;BME280;39353;42.864;12.014;2023-10-08T00:47:18;98255.08;;;26.20;45.28
52653;BME280;39353;42.864;12.014;2023-10-08T00:49:47;98256.57;;;26.20;45.43
52653;BME280;39353;42.864;12.014;2023-10-08T00:52:22;98255.90;;;26.20;45.42
52653;BME280;39353;42.864;12.014;2023-10-08T00:55:08;98257.60;;;26.19;45.52
52653;BME280;39353;42.864;12.014;2023-10-08T00:57:41;98255.16;;;26.18;45.58
52653;BME280;39353;42.864;12.014;2023-10-08T01:00:10;98255.23;;;26.19;45.55
52653;BME280;39353;42.864;12.014;2023-10-08T01:02:49;98255.07;;;26.19;45.57
52653;BME280;39353;42.864;12.014;2023-10-08T01:05:21;98250.50;;;26.19;45.43
52653;BME280;39353;42.864;12.014;2023-10-08T01:08:01;98251.31;;;26.18;45.51
52653;BME280;39353;42.864;12.014;2023-10-08T01:10:32;98253.46;;;26.19;45.53
52653;BME280;39353;42.864;12.014;2023-10-08T01:12:59;98249.92;;;26.18;45.46
52653;BME280;39353;42.864;12.014;2023-10-08T01:15:36;98252.12;;;26.18;45.49
52653;BME280;39353;42.864;12.014;2023-10-08T01:18:04;98245.61;;;26.17;45.45
52653;BME280;39353;42.864;12.014;2023-10-08T01:20:33;98246.89;;;26.17;45.38
52653;BME280;39353;42.864;12.014;2023-10-08T01:23:04;98246.77;;;26.17;45.47
52653;BME280;39353;42.864;12.014;2023-10-08T01:25:37;98244.27;;;26.16;45.48
52653;BME280;39353;42.864;12.014;2023-10-08T01:28:06;98244.70;;;26.16;45.54
52653;BME280;39353;42.864;12.014;2023-10-08T01:30:44;98241.73;;;26.15;45.42
52653;BME280;39353;42.864;12.014;2023-10-08T01:33:14;98239.20;;;26.15;45.51
52653;BME280;39353;42.864;12.014;2023-10-08T01:35:47;98235.60;;;26.15;45.55
52653;BME280;39353;42.864;12.014;2023-10-08T01:38:17;98239.90;;;26.15;45.55
52653;BME280;39353;42.864;12.014;2023-10-08T01:40:50;98237.88;;;26.15;45.61
52653;BME280;39353;42.864;12.014;2023-10-08T01:43:20;98240.77;;;26.14;45.57
52653;BME280;39353;42.864;12.014;2023-10-08T01:45:47;98238.19;;;26.14;45.64
52653;BME280;39353;42.864;12.014;2023-10-08T01:48:19;98239.25;;;26.15;45.54
52653;BME280;39353;42.864;12.014;2023-10-08T01:50:47;98237.97;;;26.15;45.68
52653;BME280;39353;42.864;12.014;2023-10-08T01:53:14;98231.92;;;26.15;45.71
52653;BME280;39353;42.864;12.014;2023-10-08T01:55:43;98235.91;;;26.14;45.75
52653;BME280;39353;42.864;12.014;2023-10-08T01:58:17;98239.42;;;26.14;45.62
52653;BME280;39353;42.864;12.014;2023-10-08T02:00:48;98241.29;;;26.13;45.84
52653;BME280;39353;42.864;12.014;2023-10-08T02:03:16;98240.84;;;26.13;45.77
52653;BME280;39353;42.864;12.014;2023-10-08T02:05:45;98234.39;;;26.13;45.72
52653;BME280;39353;42.864;12.014;2023-10-08T02:08:14;98227.92;;;26.13;45.87
52653;BME280;39353;42.864;12.014;2023-10-08T02:10:42;98228.27;;;26.13;45.80
52653;BME280;39353;42.864;12.014;2023-10-08T02:13:10;98225.05;;;26.13;45.70
52653;BME280;39353;42.864;12.014;2023-10-08T02:15:50;98227.25;;;26.13;45.85
52653;BME280;39353;42.864;12.014;2023-10-08T02:18:20;98225.77;;;26.13;45.69
52653;BME280;39353;42.864;12.014;2023-10-08T02:20:48;98226.27;;;26.13;45.81
52653;BME280;39353;42.864;12.014;2023-10-08T02:23:15;98223.52;;;26.13;45.75
52653;BME280;39353;42.864;12.014;2023-10-08T02:25:44;98213.78;;;26.12;45.82
52653;BME280;39353;42.864;12.014;2023-10-08T02:28:11;98211.56;;;26.12;45.84
52653;BME280;39353;42.864;12.014;2023-10-08T02:30:43;98209.20;;;26.12;45.79
52653;BME280;39353;42.864;12.014;2023-10-08T02:33:10;98207.91;;;26.12;45.72
52653;BME280;39353;42.864;12.014;2023-10-08T02:35:44;98209.65;;;26.12;45.77
52653;BME280;39353;42.864;12.014;2023-10-08T02:38:13;98205.45;;;26.10;45.75
52653;BME280;39353;42.864;12.014;2023-10-08T02:40:42;98204.65;;;26.09;45.79
52653;BME280;39353;42.864;12.014;2023-10-08T02:43:16;98204.14;;;26.10;45.72
52653;BME280;39353;42.864;12.014;2023-10-08T02:45:47;98203.36;;;26.11;45.94
52653;BME280;39353;42.864;12.014;2023-10-08T02:48:15;98200.73;;;26.10;45.76
52653;BME280;39353;42.864;12.014;2023-10-08T02:50:42;98200.49;;;26.10;45.90
52653;BME280;39353;42.864;12.014;2023-10-08T02:53:11;98199.16;;;26.09;45.81
52653;BME280;39353;42.864;12.014;2023-10-08T02:55:39;98202.25;;;26.10;45.78
52653;BME280;39353;42.864;12.014;2023-10-08T02:58:11;98206.92;;;26.09;45.87
52653;BME280;39353;42.864;12.014;2023-10-08T03:00:45;98202.85;;;26.09;45.95
52653;BME280;39353;42.864;12.014;2023-10-08T03:03:14;98203.88;;;26.09;45.89
52653;BME280;39353;42.864;12.014;2023-10-08T03:05:54;98203.31;;;26.08;45.83
52653;BME280;39353;42.864;12.014;2023-10-08T03:08:23;98201.00;;;26.07;45.94
52653;BME280;39353;42.864;12.014;2023-10-08T03:10:52;98201.21;;;26.07;45.84
52653;BME280;39353;42.864;12.014;2023-10-08T03:13:22;98203.97;;;26.07;46.10
52653;BME280;39353;42.864;12.014;2023-10-08T03:15:49;98206.20;;;26.07;45.86
52653;BME280;39353;42.864;12.014;2023-10-08T03:18:24;98205.29;;;26.07;45.91
52653;BME280;39353;42.864;12.014;2023-10-08T03:20:52;98208.41;;;26.07;46.04
52653;BME280;39353;42.864;12.014;2023-10-08T03:23:19;98207.36;;;26.06;45.99
52653;BME280;39353;42.864;12.014;2023-10-08T03:25:56;98204.71;;;26.05;46.01
52653;BME280;39353;42.864;12.014;2023-10-08T03:28:38;98202.08;;;26.06;45.88
52653;BME280;39353;42.864;12.014;2023-10-08T03:31:07;98201.15;;;26.06;46.10
52653;BME280;39353;42.864;12.014;2023-10-08T03:33:43;98200.05;;;26.06;46.03
52653;BME280;39353;42.864;12.014;2023-10-08T03:36:15;98203.23;;;26.05;45.97
52653;BME280;39353;42.864;12.014;2023-10-08T03:38:49;98205.70;;;26.05;46.04
52653;BME280;39353;42.864;12.014;2023-10-08T03:41:24;98205.81;;;26.05;45.97
52653;BME280;39353;42.864;12.014;2023-10-08T03:43:54;98214.44;;;26.05;46.16
52653;BME280;39353;42.864;12.014;2023-10-08T03:46:39;98217.84;;;26.04;46.14
52653;BME280;39353;42.864;12.014;2023-10-08T03:49:09;98219.15;;;26.04;46.08
52653;BME280;39353;42.864;12.014;2023-10-08T03:51:44;98220.16;;;26.05;46.07
52653;BME280;39353;42.864;12.014;2023-10-08T03:54:11;98223.96;;;26.05;45.90
52653;BME280;39353;42.864;12.014;2023-10-08T03:56:43;98222.65;;;26.06;45.94
52653;BME280;39353;42.864;12.014;2023-10-08T03:59:13;98218.65;;;26.07;46.05
52653;BME280;39353;42.864;12.014;2023-10-08T04:01:44;98220.66;;;26.05;45.96
52653;BME280;39353;42.864;12.014;2023-10-08T04:04:11;98216.20;;;26.04;45.85
52653;BME280;39353;42.864;12.014;2023-10-08T04:06:42;98217.55;;;26.04;45.95
52653;BME280;39353;42.864;12.014;2023-10-08T04:09:16;98221.84;;;26.04;45.95
52653;BME280;39353;42.864;12.014;2023-10-08T04:11:48;98222.55;;;26.04;45.87
52653;BME280;39353;42.864;12.014;2023-10-08T04:14:22;98225.89;;;26.04;46.04
52653;BME280;39353;42.864;12.014;2023-10-08T04:16:52;98219.45;;;26.03;45.93
52653;BME280;39353;42.864;12.014;2023-10-08T04:19:21;98212.17;;;26.02;46.02
52653;BME280;39353;42.864;12.014;2023-10-08T04:21:54;98213.11;;;26.02;46.06
52653;BME280;39353;42.864;12.014;2023-10-08T04:24:26;98210.36;;;26.02;46.14
52653;BME280;39353;42.864;12.014;2023-10-08T04:27:02;98215.52;;;26.02;46.12
52653;BME280;39353;42.864;12.014;2023-10-08T04:29:32;98221.77;;;26.03;46.10
52653;BME280;39353;42.864;12.014;2023-10-08T04:32:00;98222.50;;;26.02;46.14
52653;BME280;39353;42.864;12.014;2023-10-08T04:34:39;98221.55;;;26.01;46.24
52653;BME280;39353;42.864;12.014;2023-10-08T04:37:11;98228.20;;;26.00;46.24
52653;BME280;39353;42.864;12.014;2023-10-08T04:39:40;98236.77;;;26.01;46.18
52653;BME280;39353;42.864;12.014;2023-10-08T04:42:13;98236.27;;;26.01;46.23
52653;BME280;39353;42.864;12.014;2023-10-08T04:44:40;98234.67;;;26.00;46.24
52653;BME280;39353;42.864;12.014;2023-10-08T04:47:07;98242.06;;;26.01;46.24
52653;BME280;39353;42.864;12.014;2023-10-08T04:49:35;98237.59;;;26.00;46.38
52653;BME280;39353;42.864;12.014;2023-10-08T04:52:12;98238.39;;;26.01;46.20
52653;BME280;39353;42.864;12.014;2023-10-08T04:54:42;98233.53;;;26.00;46.17
52653;BME280;39353;42.864;12.014;2023-10-08T04:57:19;98236.48;;;26.00;46.34
52653;BME280;39353;42.864;12.014;2023-10-08T04:59:49;98232.21;;;26.01;46.22
52653;BME280;39353;42.864;12.014;2023-10-08T05:02:17;98231.88;;;26.00;46.21
52653;BME280;39353;42.864;12.014;2023-10-08T05:04:50;98232.67;;;26.01;45.98
52653;BME280;39353;42.864;12.014;2023-10-08T05:07:19;98238.27;;;26.01;46.15
52653;BME280;39353;42.864;12.014;2023-10-08T05:10:07;98243.27;;;26.00;46.11
52653;BME280;39353;42.864;12.014;2023-10-08T05:12:35;98244.74;;;26.00;46.21
52653;BME280;39353;42.864;12.014;2023-10-08T05:15:12;98250.00;;;26.00;46.34
52653;BME280;39353;42.864;12.014;2023-10-08T05:17:44;98251.36;;;25.99;46.34
52653;BME280;39353;42.864;12.014;2023-10-08T05:20:19;98254.16;;;25.99;46.22
52653;BME280;39353;42.864;12.014;2023-10-08T05:22:59;98262.20;;;25.99;46.48
52653;BME280;39353;42.864;12.014;2023-10-08T05:25:27;98266.48;;;25.98;46.44
52653;BME280;39353;42.864;12.014;2023-10-08T05:28:07;98262.44;;;25.97;46.46
52653;BME280;39353;42.864;12.014;2023-10-08T05:30:37;98265.73;;;25.97;46.29
52653;BME280;39353;42.864;12.014;2023-10-08T05:33:07;98270.23;;;25.97;46.30
52653;BME280;39353;42.864;12.014;2023-10-08T05:35:45;98273.88;;;25.97;46.08
52653;BME280;39353;42.864;12.014;2023-10-08T05:38:17;98271.64;;;25.96;46.11
52653;BME280;39353;42.864;12.014;2023-10-08T05:40:57;98274.98;;;25.97;46.28
52653;BME280;39353;42.864;12.014;2023-10-08T05:43:30;98271.08;;;25.97;46.21
52653;BME280;39353;42.864;12.014;2023-10-08T05:46:01;98268.09;;;25.98;46.17
52653;BME280;39353;42.864;12.014;2023-10-08T05:49:06;98270.30;;;25.98;46.22
52653;BME280;39353;42.864;12.014;2023-10-08T05:51:37;98272.32;;;25.99;46.29
52653;BME280;39353;42.864;12.014;2023-10-08T05:57:01;98271.31;;;26.00;46.21
52653;BME280;39353;42.864;12.014;2023-10-08T05:59:45;98269.32;;;26.00;46.30
52653;BME280;39353;42.864;12.014;2023-10-08T06:02:30;98268.74;;;25.99;46.33
52653;BME280;39353;42.864;12.014;2023-10-08T06:05:08;98273.14;;;25.99;46.42
52653;BME280;39353;42.864;12.014;2023-10-08T06:07:54;98276.30;;;26.00;46.37
52653;BME280;39353;42.864;12.014;2023-10-08T06:10:27;98283.74;;;26.00;46.32
52653;BME280;39353;42.864;12.014;2023-10-08T06:13:15;98277.29;;;26.00;46.26
52653;BME280;39353;42.864;12.014;2023-10-08T06:16:11;98278.34;;;25.98;46.31
52653;BME280;39353;42.864;12.014;2023-10-08T06:18:57;98272.79;;;25.96;46.15
52653;BME280;39353;42.864;12.014;2023-10-08T06:21:24;98272.89;;;25.95;46.40
52653;BME280;39353;42.864;12.014;2023-10-08T06:23:53;98274.65;;;25.95;46.53
52653;BME280;39353;42.864;12.014;2023-10-08T06:26:22;98282.02;;;25.95;46.49
52653;BME280;39353;42.864;12.014;2023-10-08T06:28:52;98294.59;;;25.97;46.27
52653;BME280;39353;42.864;12.014;2023-10-08T06:31:24;98293.67;;;25.97;46.16
52653;BME280;39353;42.864;12.014;2023-10-08T06:33:52;98289.69;;;25.97;46.23
52653;BME280;39353;42.864;12.014;2023-10-08T06:36:19;98293.50;;;25.99;46.40
52653;BME280;39353;42.864;12.014;2023-10-08T06:38:50;98299.79;;;26.02;46.55
52653;BME280;39353;42.864;12.014;2023-10-08T06:41:17;98299.17;;;26.07;46.33
52653;BME280;39353;42.864;12.014;2023-10-08T06:43:48;98303.39;;;26.11;46.47
52653;BME280;39353;42.864;12.014;2023-10-08T06:46:17;98306.58;;;26.11;46.52
52653;BME280;39353;42.864;12.014;2023-10-08T06:48:46;98305.48;;;26.01;46.09
52653;BME280;39353;42.864;12.014;2023-10-08T06:51:13;98306.23;;;25.90;46.35
52653;BME280;39353;42.864;12.014;2023-10-08T06:53:41;98302.79;;;25.77;46.61
52653;BME280;39353;42.864;12.014;2023-10-08T06:56:08;98308.64;;;25.76;47.39
52653;BME280;39353;42.864;12.014;2023-10-08T06:58:36;98306.33;;;25.78;47.54
52653;BME280;39353;42.864;12.014;2023-10-08T07:01:03;98306.73;;;25.79;47.72
52653;BME280;39353;42.864;12.014;2023-10-08T07:03:36;98318.18;;;25.77;48.05
52653;BME280;39353;42.864;12.014;2023-10-08T07:06:04;98323.74;;;25.70;48.81
52653;BME280;39353;42.864;12.014;2023-10-08T07:08:44;98324.60;;;25.63;49.67
52653;BME280;39353;42.864;12.014;2023-10-08T07:11:19;98325.54;;;25.60;50.13
52653;BME280;39353;42.864;12.014;2023-10-08T07:13:46;98316.19;;;25.55;49.88
52653;BME280;39353;42.864;12.014;2023-10-08T07:16:14;98317.86;;;25.50;50.02
52653;BME280;39353;42.864;12.014;2023-10-08T07:18:44;98316.58;;;25.47;50.44
52653;BME280;39353;42.864;12.014;2023-10-08T07:21:19;98310.48;;;25.49;49.88
52653;BME280;39353;42.864;12.014;2023-10-08T07:23:58;98310.52;;;25.51;51.24
52653;BME280;39353;42.864;12.014;2023-10-08T07:26:29;98310.73;;;25.51;49.72
52653;BME280;39353;42.864;12.014;2023-10-08T07:29:07;98311.38;;;25.52;50.59
52653;BME280;39353;42.864;12.014;2023-10-08T07:31:39;98312.33;;;25.53;49.57
52653;BME280;39353;42.864;12.014;2023-10-08T07:34:09;98319.13;;;25.56;48.91
52653;BME280;39353;42.864;12.014;2023-10-08T07:36:44;98321.25;;;25.61;48.69
52653;BME280;39353;42.864;12.014;2023-10-08T07:39:11;98317.48;;;25.69;48.53
52653;BME280;39353;42.864;12.014;2023-10-08T07:41:49;98318.23;;;25.74;47.71
52653;BME280;39353;42.864;12.014;2023-10-08T07:44:17;98323.35;;;25.74;47.91
52653;BME280;39353;42.864;12.014;2023-10-08T07:46:50;98323.58;;;25.73;48.53
52653;BME280;39353;42.864;12.014;2023-10-08T07:49:18;98324.83;;;25.72;48.33
52653;BME280;39353;42.864;12.014;2023-10-08T07:51:45;98319.84;;;25.71;49.17
52653;BME280;39353;42.864;12.014;2023-10-08T07:54:20;98312.92;;;25.73;48.21
52653;BME280;39353;42.864;12.014;2023-10-08T07:56:50;98308.23;;;25.75;48.67
52653;BME280;39353;42.864;12.014;2023-10-08T07:59:26;98309.70;;;25.79;50.75
52653;BME280;39353;42.864;12.014;2023-10-08T08:01:53;98308.36;;;25.83;50.72
52653;BME280;39353;42.864;12.014;2023-10-08T08:04:21;98308.73;;;25.92;50.46
52653;BME280;39353;42.864;12.014;2023-10-08T08:06:50;98306.58;;;26.04;51.48
52653;BME280;39353;42.864;12.014;2023-10-08T08:09:17;98303.20;;;26.15;53.01
52653;BME280;39353;42.864;12.014;2023-10-08T08:11:46;98306.79;;;26.25;54.05
52653;BME280;39353;42.864;12.014;2023-10-08T08:14:16;98306.05;;;26.34;54.44
52653;BME280;39353;42.864;12.014;2023-10-08T08:16:44;98297.02;;;26.42;54.98
52653;BME280;39353;42.864;12.014;2023-10-08T08:19:18;98299.35;;;26.48;55.52
52653;BME280;39353;42.864;12.014;2023-10-08T08:21:50;98308.70;;;26.43;53.78
52653;BME280;39353;42.864;12.014;2023-10-08T08:24:19;98321.39;;;26.44;53.96
52653;BME280;39353;42.864;12.014;2023-10-08T08:26:49;98331.21;;;26.48;54.11
52653;BME280;39353;42.864;12.014;2023-10-08T08:29:35;98335.27;;;26.50;53.94
52653;BME280;39353;42.864;12.014;2023-10-08T08:32:11;98334.73;;;26.54;54.22
52653;BME280;39353;42.864;12.014;2023-10-08T08:34:48;98338.42;;;26.56;54.35
52653;BME280;39353;42.864;12.014;2023-10-08T08:37:17;98335.54;;;26.54;53.56
52653;BME280;39353;42.864;12.014;2023-10-08T08:39:44;98329.27;;;26.52;52.82
52653;BME280;39353;42.864;12.014;2023-10-08T08:42:12;98325.76;;;26.54;53.03
52653;BME280;39353;42.864;12.014;2023-10-08T08:44:44;98319.90;;;26.55;52.85
52653;BME280;39353;42.864;12.014;2023-10-08T08:47:14;98315.32;;;26.57;52.91
52653;BME280;39353;42.864;12.014;2023-10-08T08:49:45;98315.54;;;26.59;52.98
52653;BME280;39353;42.864;12.014;2023-10-08T08:52:13;98313.65;;;26.62;53.01
52653;BME280;39353;42.864;12.014;2023-10-08T08:54:41;98317.84;;;26.62;52.95
52653;BME280;39353;42.864;12.014;2023-10-08T08:57:22;98326.02;;;26.61;52.13
52653;BME280;39353;42.864;12.014;2023-10-08T08:59:58;98326.73;;;26.50;49.64
52653;BME280;39353;42.864;12.014;2023-10-08T09:02:27;98318.79;;;26.30;48.35
52653;BME280;39353;42.864;12.014;2023-10-08T09:04:54;98326.23;;;26.21;48.70
52653;BME280;39353;42.864;12.014;2023-10-08T09:07:21;98328.19;;;26.06;47.83
52653;BME280;39353;42.864;12.014;2023-10-08T09:09:48;98319.73;;;25.90;48.22
52653;BME280;39353;42.864;12.014;2023-10-08T09:12:17;98323.98;;;25.89;49.36
52653;BME280;39353;42.864;12.014;2023-10-08T09:14:44;98316.64;;;25.94;49.82
52653;BME280;39353;42.864;12.014;2023-10-08T09:17:12;98317.45;;;25.94;48.56
52653;BME280;39353;42.864;12.014;2023-10-08T09:19:41;98314.95;;;25.87;49.09
52653;BME280;39353;42.864;12.014;2023-10-08T09:22:11;98313.66;;;25.91;49.86
52653;BME280;39353;42.864;12.014;2023-10-08T09:24:40;98312.29;;;25.96;50.14
52653;BME280;39353;42.864;12.014;2023-10-08T09:27:11;98312.89;;;26.03;50.32
52653;BME280;39353;42.864;12.014;2023-10-08T09:29:42;98309.16;;;26.08;50.28
52653;BME280;39353;42.864;12.014;2023-10-08T09:32:11;98313.27;;;26.13;50.27
52653;BME280;39353;42.864;12.014;2023-10-08T09:34:38;98315.15;;;26.15;49.77
52653;BME280;39353;42.864;12.014;2023-10-08T09:37:06;98313.97;;;26.16;50.11
52653;BME280;39353;42.864;12.014;2023-10-08T09:39:34;98311.34;;;26.19;50.04
52653;BME280;39353;42.864;12.014;2023-10-08T09:42:02;98307.88;;;26.23;50.12
52653;BME280;39353;42.864;12.014;2023-10-08T09:44:30;98309.61;;;26.23;50.09
52653;BME280;39353;42.864;12.014;2023-10-08T09:47:08;98309.23;;;26.26;50.00
52653;BME280;39353;42.864;12.014;2023-10-08T09:52:10;98307.33;;;26.29;50.05
52653;BME280;39353;42.864;12.014;2023-10-08T09:54:44;98303.88;;;26.30;49.94
52653;BME280;39353;42.864;12.014;2023-10-08T09:57:17;98308.81;;;26.32;49.93
52653;BME280;39353;42.864;12.014;2023-10-08T09:59:47;98311.99;;;26.34;49.91
52653;BME280;39353;42.864;12.014;2023-10-08T10:02:17;98311.73;;;26.34;49.66
52653;BME280;39353;42.864;12.014;2023-10-08T10:04:45;98312.98;;;26.34;49.76
52653;BME280;39353;42.864;12.014;2023-10-08T10:07:14;98312.27;;;26.33;49.42
52653;BME280;39353;42.864;12.014;2023-10-08T10:09:53;98312.49;;;26.32;48.81
52653;BME280;39353;42.864;12.014;2023-10-08T10:12:38;98309.30;;;26.29;49.18
52653;BME280;39353;42.864;12.014;2023-10-08T10:15:07;98311.09;;;26.30;49.09
52653;BME280;39353;42.864;12.014;2023-10-08T10:17:37;98313.67;;;26.32;49.08
52653;BME280;39353;42.864;12.014;2023-10-08T10:20:04;98308.92;;;26.35;48.95
52653;BME280;39353;42.864;12.014;2023-10-08T10:22:34;98312.52;;;26.39;48.98
52653;BME280;39353;42.864;12.014;2023-10-08T10:25:02;98310.07;;;26.43;48.91
52653;BME280;39353;42.864;12.014;2023-10-08T10:27:42;98309.97;;;26.46;48.86
52653;BME280;39353;42.864;12.014;2023-10-08T10:30:33;98303.60;;;26.49;48.77
52653;BME280;39353;42.864;12.014;2023-10-08T10:33:03;98302.95;;;26.52;48.85
52653;BME280;39353;42.864;12.014;2023-10-08T10:35:35;98296.69;;;26.53;47.94
52653;BME280;39353;42.864;12.014;2023-10-08T10:38:07;98295.73;;;26.47;47.48
52653;BME280;39353;42.864;12.014;2023-10-08T10:40:34;98296.26;;;26.45;47.99
52653;BME280;39353;42.864;12.014;2023-10-08T10:43:08;98296.84;;;26.48;47.77
52653;BME280;39353;42.864;12.014;2023-10-08T10:45:42;98297.52;;;26.51;47.79
52653;BME280;39353;42.864;12.014;2023-10-08T10:48:10;98298.91;;;26.54;47.83
52653;BME280;39353;42.864;12.014;2023-10-08T10:50:40;98297.70;;;26.57;47.89
52653;BME280;39353;42.864;12.014;2023-10-08T10:53:26;98295.81;;;26.62;48.44
52653;BME280;39353;42.864;12.014;2023-10-08T10:55:54;98290.52;;;26.67;48.30
52653;BME280;39353;42.864;12.014;2023-10-08T10:58:36;98287.33;;;26.73;48.80
52653;BME280;39353;42.864;12.014;2023-10-08T11:01:06;98290.19;;;26.80;49.27
52653;BME280;39353;42.864;12.014;2023-10-08T11:03:37;98287.58;;;26.87;49.97
52653;BME280;39353;42.864;12.014;2023-10-08T11:06:04;98282.02;;;26.93;50.37
52653;BME280;39353;42.864;12.014;2023-10-08T11:08:42;98277.88;;;26.99;50.32
52653;BME280;39353;42.864;12.014;2023-10-08T11:11:12;98274.42;;;27.00;50.65
52653;BME280;39353;42.864;12.014;2023-10-08T11:13:41;98272.05;;;27.03;51.49
52653;BME280;39353;42.864;12.014;2023-10-08T11:16:09;98272.08;;;27.05;50.60
52653;BME280;39353;42.864;12.014;2023-10-08T11:18:46;98266.15;;;27.06;49.80
52653;BME280;39353;42.864;12.014;2023-10-08T11:21:24;98268.52;;;27.03;48.23
52653;BME280;39353;42.864;12.014;2023-10-08T11:23:52;98267.45;;;27.01;47.98
52653;BME280;39353;42.864;12.014;2023-10-08T11:26:21;98262.90;;;27.00;47.62
52653;BME280;39353;42.864;12.014;2023-10-08T11:29:00;98258.64;;;26.98;47.14
52653;BME280;39353;42.864;12.014;2023-10-08T11:31:30;98256.25;;;26.94;46.57
52653;BME280;39353;42.864;12.014;2023-10-08T11:34:02;98255.18;;;26.93;46.05
52653;BME280;39353;42.864;12.014;2023-10-08T11:36:36;98254.17;;;26.94;45.64
52653;BME280;39353;42.864;12.014;2023-10-08T11:39:15;98245.73;;;26.91;45.06
52653;BME280;39353;42.864;12.014;2023-10-08T11:41:43;98247.75;;;26.93;45.12
52653;BME280;39353;42.864;12.014;2023-10-08T11:44:13;98248.45;;;26.96;44.47
52653;BME280;39353;42.864;12.014;2023-10-08T11:46:46;98245.15;;;26.92;43.73
52653;BME280;39353;42.864;12.014;2023-10-08T11:49:18;98241.27;;;26.91;43.98
52653;BME280;39353;42.864;12.014;2023-10-08T11:51:46;98241.66;;;26.91;43.82
52653;BME280;39353;42.864;12.014;2023-10-08T11:54:13;98240.60;;;26.91;43.77
52653;BME280;39353;42.864;12.014;2023-10-08T11:56:41;98233.99;;;26.91;43.63
52653;BME280;39353;42.864;12.014;2023-10-08T11:59:08;98227.16;;;26.93;43.15
52653;BME280;39353;42.864;12.014;2023-10-08T12:01:39;98227.30;;;26.95;42.55
52653;BME280;39353;42.864;12.014;2023-10-08T12:04:09;98224.11;;;26.95;42.13
52653;BME280;39353;42.864;12.014;2023-10-08T12:06:42;98218.65;;;26.95;42.37
52653;BME280;39353;42.864;12.014;2023-10-08T12:09:18;98215.71;;;26.94;41.97
52653;BME280;39353;42.864;12.014;2023-10-08T12:11:48;98212.10;;;26.92;41.47
52653;BME280;39353;42.864;12.014;2023-10-08T12:14:15;98209.27;;;26.90;41.23
52653;BME280;39353;42.864;12.014;2023-10-08T12:16:42;98203.35;;;26.89;41.19
52653;BME280;39353;42.864;12.014;2023-10-08T12:19:12;98202.92;;;26.90;41.37
52653;BME280;39353;42.864;12.014;2023-10-08T12:21:46;98201.09;;;26.90;40.79
52653;BME280;39353;42.864;12.014;2023-10-08T12:24:14;98198.13;;;26.90;40.90
52653;BME280;39353;42.864;12.014;2023-10-08T12:26:41;98197.04;;;26.91;41.13
52653;BME280;39353;42.864;12.014;2023-10-08T12:29:15;98197.45;;;26.92;40.97
52653;BME280;39353;42.864;12.014;2023-10-08T12:31:43;98195.27;;;26.93;41.10
52653;BME280;39353;42.864;12.014;2023-10-08T12:34:14;98195.94;;;26.94;41.17
52653;BME280;39353;42.864;12.014;2023-10-08T12:36:41;98194.05;;;26.96;41.17
52653;BME280;39353;42.864;12.014;2023-10-08T12:39:08;98197.70;;;26.98;40.98
52653;BME280;39353;42.864;12.014;2023-10-08T12:41:44;98192.15;;;26.98;40.60
52653;BME280;39353;42.864;12.014;2023-10-08T12:44:11;98185.38;;;26.98;40.57
52653;BME280;39353;42.864;12.014;2023-10-08T12:46:38;98189.79;;;26.98;40.61
52653;BME280;39353;42.864;12.014;2023-10-08T12:49:06;98190.34;;;26.99;39.89
52653;BME280;39353;42.864;12.014;2023-10-08T12:51:33;98186.60;;;26.99;39.02
52653;BME280;39353;42.864;12.014;2023-10-08T12:54:01;98185.02;;;26.99;39.17
52653;BME280;39353;42.864;12.014;2023-10-08T12:56:34;98183.92;;;27.00;38.50
52653;BME280;39353;42.864;12.014;2023-10-08T12:59:15;98182.04;;;26.99;38.66
52653;BME280;39353;42.864;12.014;2023-10-08T13:01:48;98178.77;;;26.98;38.23
52653;BME280;39353;42.864;12.014;2023-10-08T13:04:20;98181.69;;;26.98;38.29
52653;BME280;39353;42.864;12.014;2023-10-08T13:07:01;98178.61;;;26.99;37.64
52653;BME280;39353;42.864;12.014;2023-10-08T13:09:32;98174.05;;;26.99;37.98
52653;BME280;39353;42.864;12.014;2023-10-08T13:11:58;98169.61;;;26.98;38.34
52653;BME280;39353;42.864;12.014;2023-10-08T13:14:26;98170.00;;;26.98;38.58
52653;BME280;39353;42.864;12.014;2023-10-08T13:16:52;98169.28;;;26.98;38.37
52653;BME280;39353;42.864;12.014;2023-10-08T13:19:22;98164.17;;;26.98;38.13